TAF KGLS
KGLS 072337Z 0800/0824 08008KT 5SM HZ OVC013 FM080300 09007KT 4SM BR OVC006 FM081800 04005KT 6SM BR OVC010=
METAR KGLS
KGLS 080152Z AUTO 07007KT 10SM OVC019 18/15 A2999 RMK AO2 SLP154 T01830150 ?
KGLS 080052Z AUTO 08007KT 10SM FEW014 OVC020 18/14 A2998 RMK AO2 SLP151 T01830139 ?
SPECI KGLS 080038Z AUTO 06007KT 10SM SCT012 OVC020 18/14 A2998 RMK AO2 T01830139
KGLS 072352Z AUTO 08009KT 6SM HZ OVC013 18/13 A2996 RMK AO2 SLP146 T01780133 10189 20172 58003 ?
KGLS 072252Z 08008KT 5SM HZ OVC013 18/13 A2997 RMK AO2 SLP147 T01780133 ?
WC KGLS
WS KGLS
WV KGLS